TimeAWST,TemperatureF,Dew PointF,Humidity,Sea Level PressureIn,VisibilityMPH,Wind Direction,Wind SpeedMPH,Gust SpeedMPH,PrecipitationIn,Events,Conditions,WindDirDegrees,DateUTC
12:00 AM,83,69,54,29.77,,WSW,6.9,,,,,240,2013-10-21 16:00:00
12:00 AM,82.4,69.8,66,29.77,-9999.0,WSW,6.9,-,N/A,,Unknown,240,2013-10-21 16:00:00
1:00 AM,82.4,68.0,62,29.77,-9999.0,SW,9.2,-,N/A,,Mostly Cloudy,220,2013-10-21 17:00:00
2:00 AM,82.4,68.0,62,29.74,-9999.0,SSW,10.4,-,N/A,,Unknown,210,2013-10-21 18:00:00
3:00 AM,80,69,62,29.75,,SSW,8.1,,,,,210,2013-10-21 19:00:00
3:00 AM,80.6,69.8,70,29.77,-9999.0,SSW,8.1,-,N/A,,Unknown,210,2013-10-21 19:00:00
4:00 AM,77.0,68.0,74,29.77,-9999.0,SSW,9.2,-,N/A,,Unknown,200,2013-10-21 20:00:00
5:00 AM,77.0,66.2,69,29.80,-9999.0,South,8.1,-,N/A,,Unknown,180,2013-10-21 21:00:00
6:00 AM,81,63,44,29.82,,South,10.4,,,,,190,2013-10-21 22:00:00
6:00 AM,80.6,62.6,54,29.83,-9999.0,South,10.4,-,N/A,,Unknown,190,2013-10-21 22:00:00
7:00 AM,89.6,51.8,27,29.83,-9999.0,South,13.8,-,N/A,,Unknown,170,2013-10-21 23:00:00
8:00 AM,93.2,48.2,21,29.83,-9999.0,SSE,18.4,-,N/A,,Unknown,150,2013-10-22 00:00:00
9:00 AM,99,48,10,29.83,,SE,15.0,,,,,130,2013-10-22 01:00:00
9:00 AM,98.6,48.2,18,29.83,-9999.0,SE,15.0,-,N/A,,Unknown,130,2013-10-22 01:00:00
10:00 AM,102.2,46.4,15,29.83,-9999.0,SE,15.0,-,N/A,,Unknown,130,2013-10-22 02:00:00
11:00 AM,104.0,44.6,13,29.80,-9999.0,SSE,17.3,-,N/A,,Unknown,160,2013-10-22 03:00:00
12:00 PM,105,44,7,29.78,,SSE,15.0,,,,,150,2013-10-22 04:00:00
12:00 PM,105.8,44.6,13,29.77,-9999.0,SSE,15.0,-,N/A,,Unknown,150,2013-10-22 04:00:00
1:00 PM,105.8,44.6,13,29.74,-9999.0,East,12.7,-,N/A,,Unknown,100,2013-10-22 05:00:00
2:00 PM,107.6,44.6,12,29.74,-9999.0,SE,11.5,-,N/A,,Unknown,140,2013-10-22 06:00:00
3:00 PM,104.0,44.6,13,29.71,-9999.0,SE,11.5,-,N/A,,Unknown,140,2013-10-22 07:00:00
4:00 PM,102.2,44.6,14,29.71,-9999.0,SSE,10.4,-,N/A,,Unknown,150,2013-10-22 08:00:00
4:13 PM,104.0,44.6,13,29.71,-9999.0,South,17.3,-,N/A,,Unknown,190,2013-10-22 08:13:00
5:00 PM,102.2,42.8,13,29.74,-9999.0,SSE,15.0,-,N/A,,Unknown,150,2013-10-22 09:00:00
6:00 PM,99,43,8,29.75,,SSE,16.1,,,,,160,2013-10-22 10:00:00
6:00 PM,98.6,42.8,15,29.74,-9999.0,SSE,16.1,-,N/A,,Unknown,160,2013-10-22 10:00:00
7:00 PM,96.8,44.6,17,29.77,-9999.0,SSE,13.8,-,N/A,,Unknown,160,2013-10-22 11:00:00
8:00 PM,95.0,46.4,19,29.83,-9999.0,South,19.6,-,N/A,,Unknown,170,2013-10-22 12:00:00
9:00 PM,92,47,12,29.84,,SSE,11.5,,,,,160,2013-10-22 13:00:00
9:00 PM,91.4,46.4,21,29.86,-9999.0,SSE,11.5,-,N/A,,Unknown,160,2013-10-22 13:00:00
10:00 PM,91.4,46.4,21,29.83,-9999.0,SSE,10.4,-,N/A,,Unknown,150,2013-10-22 14:00:00
11:00 PM,86.0,46.4,25,29.86,-9999.0,SE,4.6,-,N/A,,Unknown,140,2013-10-22 15:00:00